Latest Weather Observations for Young

IDN60801

Issued at 12:32 pm EST Friday 31 July 2015 (issued every 30 minutes, with the page automatically refreshed every 10 minutes)

About weather observations | Map of weather stations | Latest weather observations for NSW | Other Formats
Station Details ID: 073138 Name: YOUNG AIRPORT Lat: -34.25 Lon: 148.25 Height: 379.6 m
Data from the previous 72 hours. | See also: Recent months at Young
Date/Time
EST
Temp
°C
App
Temp
°C
Dew
Point
Rel
Hum
%
Delta-T
°C
Wind Press
QNH
hPa
Press
MSL
hPa
Rain
since 9 am
mm
Dir
 
Spd
km/h
Gust
km/h
Spd
kts
Gust
kts
31/12:30pm 13.2 10.5 5.4 59 3.7 NNW 9 13 5 7 1021.3 1022.1 0.0
31/12:00pm 12.9 10.3 6.0 63 3.3 N 9 13 5 7 1021.5 1022.3 0.0
31/11:30am 12.1 8.7 5.7 65 3.0 N 13 17 7 9 1021.7 1022.5 0.0
31/11:00am 11.5 8.8 5.4 66 2.9 NNE 9 15 5 8 1021.9 1022.7 0.0
31/10:30am 11.0 8.7 5.5 69 2.6 NNE 7 11 4 6 1021.9 1022.7 0.0
31/10:00am 10.1 8.1 6.1 76 1.9 NNE 6 9 3 5 1021.8 1022.6 0.0
31/09:30am 7.8 7.0 6.6 92 0.6 CALM 0 6 0 3 1021.6 1022.4 0.0
31/09:00am 4.5 3.3 4.4 99 0.0 CALM 0 0 0 0 1021.4 1022.2 0.0
31/08:30am 3.5 0.9 3.4 99 0.0 SSW 6 7 3 4 1021.3 1022.1 0.0
31/08:00am 2.4 -0.4 2.3 99 0.0 S 6 7 3 4 1021.1 1021.9 0.0
31/07:30am 1.1 -0.7 1.0 99 0.0 CALM 0 6 0 3 1020.7 1021.4 0.0
31/07:00am 0.4 -2.9 0.3 99 0.0 SSW 7 9 4 5 1020.3 1021.0 0.0
31/06:30am 1.3 -0.9 1.2 99 0.0 SW 2 7 1 4 1020.0 1020.8 0.0
31/06:00am 1.7 -0.8 1.6 99 0.0 SW 4 7 2 4 1019.7 1020.5 0.0
31/05:30am 2.1 0.4 2.0 99 0.0 CALM 0 0 0 0 1019.6 1020.4 0.0
31/05:00am 2.7 1.1 2.6 99 0.0 CALM 0 0 0 0 1019.1 1019.9 0.0
31/04:30am 2.2 -0.6 2.1 99 0.0 S 6 6 3 3 1019.1 1019.9 0.0
31/04:00am 1.6 -1.5 1.5 99 0.0 S 7 9 4 5 1019.2 1020.0 0.0
31/03:30am 0.7 -1.2 0.6 99 0.0 CALM 0 0 0 0 1019.5 1020.3 0.0
31/03:00am 1.3 -0.5 1.2 99 0.0 CALM 0 0 0 0 1019.5 1020.3 0.0
31/02:30am 1.5 -1.0 1.4 99 0.0 SW 4 7 2 4 1019.9 1020.7 0.0
31/02:00am 2.0 0.3 1.7 98 0.1 CALM 0 4 0 2 1020.5 1021.2 0.0
31/01:30am 2.6 0.2 2.3 98 0.1 SW 4 6 2 3 1020.7 1021.4 0.0
31/01:00am 4.2 2.9 3.9 98 0.1 CALM 0 0 0 0 1020.6 1021.3 0.0
31/12:30am 4.8 2.5 4.7 99 0.0 N 6 9 3 5 1020.7 1021.4 0.0
31/12:00am 4.4 1.4 4.1 98 0.1 WSW 9 9 5 5 1020.9 1021.6 0.0
 
Date/Time
EST
Temp
°C
App
Temp
°C
Dew
Point
Rel
Hum
%
Delta-T
°C
Wind Press
QNH
hPa
Press
MSL
hPa
Rain
since 9 am
mm
Dir
 
Spd
km/h
Gust
km/h
Spd
kts
Gust
kts
30/11:30pm 4.1 2.7 3.7 97 0.2 CALM 0 0 0 0 1020.8 1021.5 0.0
30/11:00pm 4.0 2.6 3.4 96 0.3 CALM 0 0 0 0 1021.1 1021.9 0.0
30/10:30pm 4.4 3.0 3.5 94 0.4 CALM 0 0 0 0 1021.1 1021.9 0.0
30/10:00pm 5.2 2.7 3.9 91 0.6 SSE 6 7 3 4 1021.1 1021.9 0.0
30/09:30pm 6.1 3.7 4.4 89 0.7 S 6 7 3 4 1021.0 1021.7 0.0
30/09:00pm 6.9 4.0 4.9 87 0.9 N 9 13 5 7 1020.5 1021.2 0.0
30/08:30pm 6.5 4.2 4.8 89 0.8 NNW 6 7 3 4 1020.7 1021.4 0.0
30/08:00pm 5.9 4.7 4.4 90 0.7 CALM 0 6 0 3 1020.8 1021.5 0.0
30/07:30pm 6.5 3.9 4.2 85 1.0 NNW 7 7 4 4 1020.9 1021.6 0.0
30/07:00pm 7.2 4.9 4.9 85 1.0 N 6 7 3 4 1020.9 1021.6 0.0
30/06:30pm 7.2 4.7 4.7 84 1.1 N 7 9 4 5 1021.1 1021.9 0.0
30/06:00pm 7.8 5.5 4.6 80 1.4 NNW 6 7 3 4 1021.6 1022.4 0.0
30/05:30pm 8.7 5.7 4.1 73 2.1 NNW 9 11 5 6 1021.5 1022.3 0.0
30/05:00pm 9.8 6.4 4.2 68 2.5 NNW 11 17 6 9 1021.5 1022.3 0.0
30/04:30pm 11.0 6.5 4.2 63 3.1 NNW 17 22 9 12 1021.5 1022.3 0.0
30/04:00pm 11.4 6.2 3.4 58 3.6 NNW 20 28 11 15 1021.4 1022.2 0.0
30/03:30pm 11.4 7.0 4.6 63 3.1 N 17 24 9 13 1021.0 1021.7 0.0
30/03:00pm 11.2 6.1 4.2 62 3.2 NNW 20 30 11 16 1021.6 1022.4 0.0
30/02:30pm 11.5 7.1 4.7 63 3.2 NNW 17 20 9 11 1022.1 1022.9 0.0
30/02:00pm 12.2 8.1 4.4 59 3.6 NNW 15 24 8 13 1022.8 1023.6 0.0
30/01:30pm 11.5 7.0 4.3 61 3.3 NW 17 24 9 13 1023.6 1024.4 0.0
30/01:00pm 11.8 7.3 4.3 60 3.4 N 17 26 9 14 1023.9 1024.7 0.0
30/12:30pm 11.2 6.7 4.0 61 3.3 NNW 17 26 9 14 1024.2 1025.0 0.0
30/12:00pm 11.0 6.2 4.7 65 2.9 NNW 19 28 10 15 1024.8 1025.6 0.0
30/11:30am 11.1 6.3 4.6 64 3.0 NNW 19 28 10 15 1024.9 1025.7 0.0
30/11:00am 10.9 6.2 5.2 68 2.6 NNW 19 28 10 15 1025.4 1026.2 0.0
30/10:30am 10.2 6.1 4.6 68 2.6 NNW 15 22 8 12 1025.7 1026.6 0.0
30/10:00am 8.9 5.7 5.3 78 1.6 N 11 15 6 8 1025.9 1026.7 0.0
30/09:30am 7.3 4.4 4.6 83 1.2 N 9 11 5 6 1026.2 1027.0 0.0
30/09:00am 4.3 2.9 3.4 94 0.4 CALM 0 0 0 0 1026.4 1027.2 0.2
30/08:30am 2.4 -0.4 2.3 99 0.0 SSW 6 6 3 3 1026.7 1027.5 0.2
30/08:00am 1.4 -1.1 1.3 99 0.0 SSW 4 7 2 4 1026.6 1027.4 0.2
30/07:30am -0.2 -2.2 -0.3 99 0.0 CALM 0 0 0 0 1026.5 1027.3 0.0
30/07:00am 0.0 -3.1 -0.1 99 0.0 S 6 7 3 4 1026.4 1027.2 0.0
30/06:30am 0.9 -2.1 0.8 99 0.0 SSE 6 7 3 4 1026.2 1027.0 0.0
30/06:00am 0.8 -2.4 0.7 99 0.0 S 7 7 4 4 1026.3 1027.1 0.0
30/05:30am 1.0 -2.0 0.9 99 0.0 SSW 6 7 3 4 1026.0 1026.8 0.0
30/05:00am 0.7 -2.3 0.6 99 0.0 SW 6 7 3 4 1026.1 1026.9 0.0
30/04:30am 0.6 -2.4 0.5 99 0.0 S 6 7 3 4 1026.3 1027.1 0.0
30/04:00am 0.4 -2.7 0.3 99 0.0 SSE 6 7 3 4 1026.4 1027.2 0.0
30/03:30am 0.8 -2.4 0.7 99 0.0 SSW 7 7 4 4 1026.7 1027.5 0.0
30/03:00am 0.8 -2.4 0.7 99 0.0 SSW 7 7 4 4 1026.7 1027.5 0.0
30/02:30am 0.7 -2.3 0.6 99 0.0 SW 6 7 3 4 1027.4 1028.2 0.0
30/02:00am 1.4 -1.1 1.3 99 0.0 SSW 4 6 2 3 1027.8 1028.7 0.0
30/01:30am 1.4 -1.7 1.3 99 0.0 SW 7 9 4 5 1028.0 1028.9 0.0
30/01:00am 2.1 -0.9 2.0 99 0.0 SE 7 11 4 6 1027.8 1028.7 0.0
30/12:30am 2.2 -0.6 2.1 99 0.0 SW 6 9 3 5 1028.0 1028.9 0.0
30/12:00am 2.3 -0.7 2.2 99 0.0 SW 7 9 4 5 1028.6 1029.4 0.0
 
Date/Time
EST
Temp
°C
App
Temp
°C
Dew
Point
Rel
Hum
%
Delta-T
°C
Wind Press
QNH
hPa
Press
MSL
hPa
Rain
since 9 am
mm
Dir
 
Spd
km/h
Gust
km/h
Spd
kts
Gust
kts
29/11:30pm 2.7 0.0 2.6 99 0.0 SE 6 7 3 4 1028.7 1029.5 0.0
29/11:00pm 2.8 0.1 2.5 98 0.1 SSW 6 7 3 4 1029.0 1029.8 0.0
29/10:30pm 2.9 0.2 2.5 97 0.2 SW 6 7 3 4 1029.0 1029.8 0.0
29/10:00pm 3.4 0.6 3.0 97 0.2 SSW 7 9 4 5 1029.5 1030.3 0.0
29/09:30pm 3.8 1.2 3.4 97 0.2 S 6 7 3 4 1029.7 1030.5 0.0
29/09:00pm 3.9 1.3 3.3 96 0.2 SSW 6 7 3 4 1029.7 1030.5 0.0
29/08:30pm 4.2 1.5 3.5 95 0.3 WSW 7 9 4 5 1029.5 1030.3 0.0
29/08:00pm 4.9 2.3 4.2 95 0.3 SSW 7 9 4 5 1029.0 1029.8 0.0
29/07:30pm 5.1 2.5 4.2 94 0.4 SSW 7 7 4 4 1029.7 1030.5 0.0
29/07:00pm 5.4 3.0 4.2 92 0.5 SW 6 7 3 4 1029.7 1030.5 0.0
29/06:30pm 5.9 4.3 4.5 91 0.6 S 2 7 1 4 1029.4 1030.2 0.0
29/06:00pm 6.1 4.8 4.3 88 0.8 CALM 0 0 0 0 1029.4 1030.2 0.0
29/05:30pm 6.7 5.0 4.2 84 1.1 WSW 2 7 1 4 1029.2 1030.0 0.0
29/05:00pm 9.0 6.6 4.2 72 2.1 W 6 7 3 4 1029.1 1029.9 0.0
29/04:30pm 12.0 9.5 3.8 57 3.7 WNW 6 9 3 5 1029.2 1030.0 0.0
29/04:00pm 13.2 10.6 4.4 55 4.1 W 7 13 4 7 1029.5 1030.3 0.0
29/03:30pm 13.0 9.9 3.7 53 4.3 WNW 9 17 5 9 1029.9 1030.8 0.0
29/03:00pm 13.1 10.1 4.3 55 4.1 NW 9 15 5 8 1029.8 1030.6 0.0
29/02:30pm 13.1 10.1 4.0 54 4.2 NW 9 13 5 7 1029.9 1030.8 0.0
29/02:00pm 12.6 8.8 3.8 55 4.0 NNW 13 20 7 11 1030.2 1031.1 0.0
29/01:30pm 12.8 9.1 4.3 56 4.0 N 13 20 7 11 1030.2 1031.1 0.0
29/01:00pm 12.7 8.9 3.9 55 4.0 NNW 13 20 7 11 1031.6 1032.4 0.0
29/12:30pm 12.7 9.4 4.4 57 3.9 N 11 20 6 11 1031.8 1032.6 0.0
29/12:00pm 12.2 9.7 4.9 61 3.4 N 7 13 4 7 1032.6 1033.5 0.0
29/11:30am 11.6 9.3 5.9 68 2.7 NE 7 11 4 6 1033.1 1034.0 0.0
29/11:00am 10.8 10.1 7.1 78 1.8 CALM 0 6 0 3 1033.4 1034.3 0.0
29/10:30am 8.2 6.4 7.0 92 0.6 S 6 7 3 4 1033.8 1034.7 0.0
29/10:00am 6.4 4.8 6.3 99 0.0 SSE 4 7 2 4 1033.9 1034.8 0.0
29/09:30am 4.5 1.9 4.4 99 0.0 SSW 7 9 4 5 1034.3 1035.1 0.0
29/09:00am 1.8 -1.6 1.7 99 0.0 SSW 9 11 5 6 1034.3 1035.1 0.0
29/08:30am 0.0 -3.3 -0.1 99 0.0 SSW 7 9 4 5 1034.2 1035.0 0.0
29/08:00am -0.9 -4.4 -1.0 99 0.0 S 7 9 4 5 1034.5 1035.4 0.0
29/07:30am -1.3 -4.8 -1.4 99 0.0 SSW 7 9 4 5 1034.3 1035.1 0.0
29/07:00am -1.3 -4.8 -1.4 99 0.0 S 7 7 4 4 1033.8 1034.7 0.0
29/06:30am -1.1 -4.6 -1.2 99 0.0 SSW 7 9 4 5 1033.6 1034.5 0.0
29/06:00am -1.0 -4.5 -1.1 99 0.0 SSW 7 9 4 5 1033.3 1034.2 0.0
29/05:30am -0.9 -4.4 -1.0 99 0.0 S 7 9 4 5 1033.1 1034.0 0.0
29/05:00am -0.8 -4.2 -0.9 99 0.0 SW 7 9 4 5 1033.0 1033.9 0.0
29/04:30am -0.9 -4.4 -1.0 99 0.0 SSW 7 7 4 4 1032.9 1033.8 0.0
29/04:00am -1.2 -4.7 -1.3 99 0.0 SW 7 9 4 5 1033.0 1033.9 0.0
29/03:30am -1.2 -4.5 -1.3 99 0.0 S 6 7 3 4 1033.1 1034.0 0.0
29/03:00am -1.3 -4.8 -1.4 99 0.0 S 7 7 4 4 1033.0 1033.9 0.0
29/02:30am -1.9 -5.5 -2.0 99 -0.1 SW 7 7 4 4 1033.3 1034.2 0.0
29/02:00am -1.7 -5.3 -1.8 99 0.0 S 7 7 4 4 1033.4 1034.3 0.0
29/01:30am -1.8 -5.2 -1.9 99 0.0 S 6 7 3 4 1033.3 1034.2 0.0
29/01:00am -1.4 -4.9 -1.5 99 0.0 SSW 7 7 4 4 1033.4 1034.3 0.0
29/12:30am -1.6 -5.1 -1.7 99 0.0 SSW 7 9 4 5 1033.3 1034.2 0.0
29/12:00am -1.1 -4.0 -1.2 99 0.0 SW 4 6 2 3 1033.5 1034.4 0.0
 
Date/Time
EST
Temp
°C
App
Temp
°C
Dew
Point
Rel
Hum
%
Delta-T
°C
Wind Press
QNH
hPa
Press
MSL
hPa
Rain
since 9 am
mm
Dir
 
Spd
km/h
Gust
km/h
Spd
kts
Gust
kts
28/11:30pm -1.1 -4.4 -1.4 98 0.1 S 6 9 3 5 1033.6 1034.5 0.0
28/11:00pm -0.4 -2.5 -0.5 99 0.0 CALM 0 0 0 0 1033.5 1034.4 0.0
28/10:30pm -0.3 -3.5 -0.4 99 0.0 SW 6 9 3 5 1033.7 1034.6 0.0
28/10:00pm 0.0 -2.8 -0.1 99 0.0 SSW 4 7 2 4 1033.7 1034.6 0.0
28/09:30pm 0.6 -2.7 0.3 98 0.1 SSW 7 7 4 4 1033.9 1034.8 0.0
28/09:00pm 1.2 -0.6 1.1 99 0.0 CALM 0 0 0 0 1033.8 1034.7 0.0
28/08:30pm 1.6 -0.2 1.2 97 0.2 CALM 0 0 0 0 1033.6 1034.5 0.0
28/08:00pm 2.0 0.2 1.3 95 0.3 CALM 0 0 0 0 1033.6 1034.5 0.0
28/07:30pm 2.6 0.9 1.7 94 0.4 CALM 0 0 0 0 1033.4 1034.3 0.0
28/07:00pm 4.1 1.9 3.2 94 0.4 S 4 7 2 4 1033.4 1034.3 0.0
28/06:30pm 4.8 2.1 3.5 91 0.6 SSW 7 9 4 5 1033.0 1033.9 0.0
28/06:00pm 5.9 2.4 3.6 85 1.0 WSW 11 13 6 7 1032.9 1033.8 0.0
28/05:30pm 8.3 4.7 5.1 80 1.5 SW 13 15 7 8 1032.6 1033.5 0.0
28/05:00pm 9.1 5.0 4.5 73 2.1 SW 15 19 8 10 1032.5 1033.4 0.0
28/04:30pm 10.1 6.5 4.9 70 2.4 SSW 13 19 7 10 1032.1 1033.0 0.0
28/04:00pm 10.3 6.6 4.7 68 2.5 SW 13 19 7 10 1032.1 1033.0 0.0
28/03:30pm 11.0 6.1 4.0 62 3.2 SW 19 24 10 13 1032.0 1032.8 0.0
28/03:00pm 11.6 7.2 5.0 64 3.1 WSW 17 24 9 13 1032.0 1032.8 0.0
28/02:30pm 12.0 8.1 5.2 63 3.2 SW 15 22 8 12 1032.1 1033.0 0.0
28/02:00pm 11.2 6.8 4.7 64 3.0 SW 17 24 9 13 1032.3 1033.2 0.0
28/01:30pm 10.9 6.9 4.8 66 2.8 SSW 15 20 8 11 1032.6 1033.5 0.0
28/01:00pm 10.8 6.4 4.5 65 2.9 SW 17 22 9 12 1032.9 1033.8 0.0

Other Formats:

Comma delimited format used in spreadsheet applications
http://www.bom.gov.au/fwo/IDN60801/IDN60801.94712.axf

JavaScript Object Notation format (JSON) in row-major order
http://www.bom.gov.au/fwo/IDN60801/IDN60801.94712.json